createdAt,value
2022-07-29T17:36:57.049Z,38.10
2022-07-29T17:39:24.282Z,37.94
2022-07-29T17:41:50.900Z,38.40
2022-07-29T17:44:17.434Z,38.14
2022-07-29T17:46:45.774Z,38.50
2022-07-29T17:49:12.795Z,38.33
2022-07-29T17:51:39.392Z,38.30
2022-07-29T17:54:06.165Z,38.56
2022-07-29T17:56:32.783Z,38.52
2022-07-29T17:59:01.570Z,38.67
2022-07-29T18:01:33.631Z,38.32
2022-07-29T18:04:00.439Z,38.33
2022-07-29T18:06:27.082Z,38.67
2022-07-29T18:08:53.930Z,38.84
2022-07-29T18:11:20.476Z,39.15
2022-07-29T18:13:47.322Z,39.30
2022-07-29T18:16:15.821Z,39.84
2022-07-29T18:18:44.958Z,40.23
2022-07-29T18:21:12.262Z,40.32
2022-07-29T18:23:40.577Z,40.64
2022-07-29T18:26:07.371Z,40.67
2022-07-29T18:28:34.157Z,40.76
2022-07-29T18:31:04.685Z,40.90
2022-07-29T18:33:32.658Z,41.14
2022-07-29T18:36:10.643Z,41.56
2022-07-29T18:38:41.896Z,41.99
2022-07-29T18:41:08.447Z,42.35
2022-07-29T18:43:35.191Z,42.72
2022-07-29T18:46:06.167Z,42.69
2022-07-29T18:48:34.086Z,44.20
2022-07-29T18:51:01.957Z,46.52
2022-07-29T18:53:37.469Z,50.49
2022-07-29T18:56:04.607Z,51.02
2022-07-29T18:58:33.020Z,53.05
2022-07-29T19:01:00.300Z,56.24
2022-07-29T19:03:26.892Z,56.42
2022-07-29T19:05:53.427Z,56.72
2022-07-29T19:08:28.133Z,57.26
2022-07-29T19:10:54.685Z,57.86
2022-07-29T19:13:21.387Z,58.97
2022-07-29T19:15:49.818Z,60.14
2022-07-29T19:18:16.497Z,60.34
2022-07-29T19:20:43.349Z,61.96
2022-07-29T19:23:10.250Z,61.87
2022-07-29T19:25:37.505Z,61.27
2022-07-29T19:28:20.108Z,65.68
2022-07-29T19:30:46.710Z,65.53
2022-07-29T19:33:17.652Z,66.51
2022-07-29T19:35:50.375Z,64.62
2022-07-29T19:38:19.468Z,68.56
2022-07-29T19:40:46.020Z,66.43
2022-07-29T19:43:49.626Z,66.94
2022-07-29T19:46:02.950Z,66.82
2022-07-29T19:48:29.662Z,67.11
2022-07-29T19:50:56.391Z,68.29
2022-07-29T19:53:23.152Z,67.59
2022-07-29T19:55:49.804Z,68.55
2022-07-29T19:58:16.458Z,70.13
2022-07-29T20:00:43.572Z,69.00
2022-07-29T20:03:10.362Z,69.28
2022-07-29T20:05:37.816Z,69.05
2022-07-29T20:08:06.265Z,70.34
2022-07-29T20:10:37.974Z,70.58
2022-07-29T20:13:04.519Z,72.17
2022-07-29T20:15:31.107Z,72.57
2022-07-29T20:17:57.881Z,72.28
2022-07-29T20:20:25.246Z,71.67
